全部
Riversleigh Airport YRLH 天氣
There is no TAF data available at YRLH or any nearby airports.
There is no METAR data available at YRLH. Showing METAR data for YCNY (19 mi N).
YCNY近期METAR歷史資料(YRLH無資料)
| Date | Time (AEST) | Flight Rules | Wind Dir. | Speed | Type | Height AGL (ft) | Visibility | Temp (°C) | Temp (°F) | Dew Point (°C) | Dew Point (°F) | Rel. Humid. | Pressure | Density Altitude | Remarks |
|---|---|---|---|---|---|---|---|---|---|---|---|---|---|---|---|
| 05-五月 | 17:00 | n/a | 170° | 7 kt | Missing | 29° | 84° | 14° | 57° | 40% | 1014 mb | 2,073 ft | |||
| 05-五月 | 16:00 | n/a | 180° | 7 kt | Missing | 29° | 84° | 14° | 57° | 40% | 1013 mb | 2,102 ft | |||
| 05-五月 | 15:00 | n/a | 150° | 9 kt | Missing | 29° | 84° | 14° | 57° | 40% | 1014 mb | 2,073 ft | |||
| 05-五月 | 14:00 | n/a | 160° | 9 kt | Missing | 29° | 84° | 14° | 57° | 40% | 1014 mb | 2,073 ft | |||
| 05-五月 | 13:00 | n/a | 150° | 10 kt | Missing | 28° | 82° | 16° | 60° | 48% | 1015 mb | 1,923 ft | |||
| 05-五月 | 12:00 | n/a | 190° | 9 kt | Missing | 27° | 80° | 17° | 62° | 54% | 1016 mb | 1,774 ft | |||
| 05-五月 | 11:00 | n/a | 130° | 10 kt | Missing | 26° | 78° | 18° | 64° | 61% | 1017 mb | 1,624 ft | |||
| 05-五月 | 10:00 | n/a | 150° | 7 kt | Missing | 24° | 75° | 17° | 62° | 65% | 1017 mb | 1,384 ft | |||
| 05-五月 | 09:00 | n/a | 190° | 9 kt | Missing | 21° | 69° | 16° | 60° | 73% | 1017 mb | 1,024 ft | |||
| 05-五月 | 08:00 | n/a | 200° | 6 kt | Missing | 19° | 66° | 16° | 60° | 83% | 1016 mb | 814 ft | |||
| 05-五月 | 07:00 | n/a | 200° | 6 kt | Missing | 19° | 66° | 16° | 60° | 83% | 1016 mb | 814 ft | |||
| 05-五月 | 06:00 | n/a | 190° | 9 kt | Missing | 19° | 66° | 16° | 60° | 83% | 1015 mb | 843 ft | |||
| 05-五月 | 05:00 | n/a | 220° | 6 kt | Missing | 19° | 66° | 16° | 60° | 83% | 1015 mb | 843 ft | |||
| 05-五月 | 04:00 | n/a | 190° | 7 kt | Missing | 20° | 68° | 16° | 60° | 78% | 1014 mb | 993 ft | |||
| 05-五月 | 03:00 | n/a | 200° | 7 kt | Missing | 21° | 69° | 16° | 60° | 73% | 1014 mb | 1,113 ft | |||
| 05-五月 | 02:00 | n/a | 210° | 7 kt | Missing | 21° | 69° | 16° | 60° | 73% | 1015 mb | 1,083 ft | |||
| 05-五月 | 01:00 | n/a | 190° | 7 kt | Missing | 21° | 69° | 16° | 60° | 73% | 1015 mb | 1,083 ft | |||
| 05-五月 | 00:00 | n/a | 190° | 8 kt | Missing | 22° | 71° | 16° | 60° | 69% | 1016 mb | 1,174 ft | |||
| 04-五月 | 23:00 | n/a | 200° | 12 kt | Missing | 22° | 71° | 15° | 59° | 65% | 1016 mb | 1,174 ft | |||
| 04-五月 | 22:00 | n/a | 200° | 9 kt | Missing | 23° | 73° | 15° | 59° | 61% | 1016 mb | 1,294 ft | |||
| 04-五月 | 21:00 | n/a | 190° | 11 kt | Missing | 24° | 75° | 15° | 59° | 57% | 1016 mb | 1,414 ft | |||
| 04-五月 | 20:00 | n/a | 210° | 11 kt | Missing | 24° | 75° | 14° | 57° | 54% | 1015 mb | 1,443 ft | Wind gusting to 21 KT | ||
| 04-五月 | 19:00 | n/a | 210° | 13 kt | Missing | 26° | 78° | 13° | 55° | 45% | 1014 mb | 1,713 ft | |||
| 04-五月 | 18:00 | n/a | 210° | 12 kt | Missing | 28° | 82° | 12° | 53° | 37% | 1013 mb | 1,982 ft |
登入
| 您的瀏覽器不支援. 升級您的瀏覽器 |
